Time;durP1;ratioP1;P1;durP2;ratioP2;P2;SDS_P1;SDS_P2;PMS_P1;PMS_P2;Temp;Humidity;BMP_temperature;BMP_pressure;BME280_temperature;BME280_humidity;BME280_pressure;Samples;Min_cycle;Max_cycle;Signal;HPM_P1;HPM_P2
2023/07/14 00:00:13;;;;;;;;;;;18.00;1.00;;;;;;5057917;28;19934;-78
2023/07/14 00:02:39;;;;;;;;;;;18.00;1.00;;;;;;5062584;28;19966;-78
2023/07/14 00:05:05;;;;;;;;;;;17.90;1.00;;;;;;5061642;28;21446;-78
2023/07/14 00:07:30;;;;;;;;;;;17.90;1.00;;;;;;5061637;27;20047;-82
2023/07/14 00:09:56;;;;;;;;;;;17.90;1.00;;;;;;5062592;28;19931;-78
2023/07/14 00:12:21;;;;;;;;;;;17.90;1.00;;;;;;5063363;28;19928;-81
2023/07/14 00:14:47;;;;;;;;;;;17.80;1.00;;;;;;5079349;27;20112;-77
2023/07/14 00:17:13;;;;;;;;;;;17.80;1.00;;;;;;5083102;27;19976;-78
2023/07/14 00:19:39;;;;;;;;;;;17.80;1.00;;;;;;5060583;28;20500;-77
2023/07/14 00:22:12;;;;;;;;;;;17.80;1.00;;;;;;5061218;28;20002;-77
2023/07/14 00:24:37;;;;;;;;;;;17.70;1.00;;;;;;5059695;28;19931;-80
2023/07/14 00:27:09;;;;;;;;;;;17.70;1.00;;;;;;5061902;28;19927;-77
2023/07/14 00:29:36;;;;;;;;;;;17.70;1.00;;;;;;5063018;28;20287;-81
2023/07/14 00:32:02;;;;;;;;;;;17.70;1.00;;;;;;5043990;28;20710;-79
2023/07/14 00:34:28;;;;;;;;;;;17.70;1.00;;;;;;5079192;28;19971;-76
2023/07/14 00:36:54;;;;;;;;;;;17.80;1.00;;;;;;5062767;28;20010;-82
2023/07/14 00:39:19;;;;;;;;;;;17.80;1.00;;;;;;5058371;28;19996;-78
2023/07/14 00:41:45;;;;;;;;;;;17.80;1.00;;;;;;5074488;27;19931;-83
2023/07/14 00:44:13;;;;;;;;;;;17.90;1.00;;;;;;5058210;27;20252;-82
2023/07/14 00:46:39;;;;;;;;;;;17.90;1.00;;;;;;5054596;27;20008;-79
2023/07/14 00:49:06;;;;;;;;;;;18.00;1.00;;;;;;5037827;27;20370;-76
2023/07/14 00:51:34;;;;;;;;;;;17.90;2.60;;;;;;5036383;28;20303;-78
2023/07/14 00:53:59;;;;;;;;;;;18.00;1.00;;;;;;5038008;27;20041;-82
2023/07/14 00:56:25;;;;;;;;;;;18.00;1.00;;;;;;5033738;28;19931;-79
2023/07/14 00:58:50;;;;;;;;;;;18.00;1.00;;;;;;5049748;28;19932;-77
2023/07/14 01:01:25;;;;;;;;;;;18.00;1.00;;;;;;5049806;27;19928;-78
2023/07/14 01:03:55;;;;;;;;;;;18.10;1.00;;;;;;5049157;28;19931;-80
2023/07/14 01:06:26;;;;;;;;;;;18.10;1.00;;;;;;5050485;27;19966;-79
2023/07/14 01:08:54;;;;;;;;;;;18.10;1.00;;;;;;5049496;27;20022;-85
2023/07/14 01:11:24;;;;;;;;;;;18.10;1.00;;;;;;5071660;27;19928;-78
2023/07/14 01:13:50;;;;;;;;;;;18.10;1.00;;;;;;5058878;27;19940;-86
2023/07/14 01:16:16;;;;;;;;;;;18.10;1.00;;;;;;5058529;27;20016;-86
2023/07/14 01:18:46;;;;;;;;;;;18.10;1.00;;;;;;5057230;27;20437;-82
2023/07/14 01:21:12;;;;;;;;;;;18.10;1.00;;;;;;5061201;28;19966;-78
2023/07/14 01:23:55;;;;;;;;;;;18.10;1.00;;;;;;5049936;28;19932;-85
2023/07/14 01:26:39;;;;;;;;;;;18.10;1.00;;;;;;5050257;28;19935;-77
2023/07/14 01:29:05;;;;;;;;;;;18.10;1.00;;;;;;5048051;27;19928;-79
2023/07/14 01:31:30;;;;;;;;;;;18.10;1.00;;;;;;5055282;27;19938;-77
2023/07/14 01:33:56;;;;;;;;;;;18.10;1.00;;;;;;5068050;27;19963;-82
2023/07/14 01:36:23;;;;;;;;;;;18.00;1.00;;;;;;5051961;27;20370;-80
2023/07/14 01:38:49;;;;;;;;;;;18.00;1.00;;;;;;5039015;28;20145;-82
2023/07/14 01:41:15;;;;;;;;;;;17.90;1.00;;;;;;5041632;28;19939;-81
2023/07/14 01:43:42;;;;;;;;;;;17.90;1.00;;;;;;5044860;27;19931;-80
2023/07/14 01:46:12;;;;;;;;;;;17.90;1.00;;;;;;5063860;27;20619;-81
2023/07/14 01:48:46;;;;;;;;;;;17.90;1.00;;;;;;5069411;28;19928;-78
2023/07/14 01:51:12;;;;;;;;;;;17.90;1.00;;;;;;5052187;28;19927;-77
2023/07/14 01:53:41;;;;;;;;;;;17.80;1.00;;;;;;5047363;27;19927;-80
2023/07/14 01:56:09;;;;;;;;;;;17.80;1.00;;;;;;5045934;27;19927;-81
2023/07/14 01:58:57;;;;;;;;;;;17.80;1.00;;;;;;5042176;28;19932;-82
2023/07/14 02:01:23;;;;;;;;;;;17.80;1.00;;;;;;5059885;27;20669;-80
2023/07/14 02:03:50;;;;;;;;;;;17.80;1.00;;;;;;5050144;27;19935;-77
2023/07/14 02:06:16;;;;;;;;;;;17.80;1.00;;;;;;5047886;28;20011;-78
2023/07/14 02:08:44;;;;;;;;;;;17.80;1.00;;;;;;5046849;27;20011;-77
2023/07/14 02:11:28;;;;;;;;;;;17.80;1.00;;;;;;5048050;27;19935;-75
2023/07/14 02:13:55;;;;;;;;;;;17.80;1.00;;;;;;5048661;28;19984;-82
2023/07/14 02:16:21;;;;;;;;;;;17.90;1.00;;;;;;5054743;28;20411;-81
2023/07/14 02:18:47;;;;;;;;;;;17.90;1.00;;;;;;5071492;27;20359;-78
2023/07/14 02:21:14;;;;;;;;;;;17.90;1.00;;;;;;5048455;28;19994;-82
2023/07/14 02:23:41;;;;;;;;;;;17.90;1.00;;;;;;5032589;28;19978;-81
2023/07/14 02:26:11;;;;;;;;;;;17.90;1.00;;;;;;5049642;28;20324;-83
2023/07/14 02:28:37;;;;;;;;;;;17.90;1.00;;;;;;5045334;27;20810;-83
2023/07/14 02:31:10;;;;;;;;;;;17.80;1.00;;;;;;5038236;27;19949;-79
2023/07/14 02:33:38;;;;;;;;;;;17.80;1.00;;;;;;5048367;28;20012;-82
2023/07/14 02:36:20;;;;;;;;;;;17.80;1.00;;;;;;5030621;27;19931;-81
2023/07/14 02:38:46;;;;;;;;;;;17.80;1.00;;;;;;5045310;28;19996;-83
2023/07/14 02:41:20;;;;;;;;;;;17.80;1.00;;;;;;5045105;28;19935;-83
2023/07/14 02:43:52;;;;;;;;;;;17.80;1.00;;;;;;5064985;28;19939;-79
2023/07/14 02:46:20;;;;;;;;;;;17.80;1.00;;;;;;5049290;27;19928;-81
2023/07/14 02:48:49;;;;;;;;;;;17.80;1.00;;;;;;5045423;28;20405;-85
2023/07/14 02:51:15;;;;;;;;;;;17.80;2.10;;;;;;5067323;27;20320;-90
2023/07/14 02:53:40;;;;;;;;;;;17.70;1.00;;;;;;5052912;28;19932;-85
2023/07/14 02:56:06;;;;;;;;;;;17.70;1.00;;;;;;5047132;28;20366;-85
2023/07/14 02:58:34;;;;;;;;;;;17.70;1.00;;;;;;5048010;28;20197;-80
2023/07/14 03:01:00;;;;;;;;;;;17.70;1.00;;;;;;5044611;28;19932;-84
2023/07/14 03:03:28;;;;;;;;;;;17.70;1.00;;;;;;5032174;28;20915;-81
2023/07/14 03:05:54;;;;;;;;;;;17.60;1.00;;;;;;5043852;28;19974;-80
2023/07/14 03:08:20;;;;;;;;;;;17.60;1.00;;;;;;5044165;27;20410;-77
2023/07/14 03:10:55;;;;;;;;;;;17.60;1.00;;;;;;5041862;28;20090;-80
2023/07/14 03:13:21;;;;;;;;;;;17.60;1.80;;;;;;5042280;28;20073;-80
2023/07/14 03:15:47;;;;;;;;;;;17.50;4.10;;;;;;5046382;27;19931;-78
2023/07/14 03:18:14;;;;;;;;;;;17.50;4.90;;;;;;5043644;28;19938;-77
2023/07/14 03:20:40;;;;;;;;;;;17.50;1.00;;;;;;5032956;28;19931;-77
2023/07/14 03:23:06;;;;;;;;;;;17.40;1.30;;;;;;5029364;27;19976;-84
2023/07/14 03:25:33;;;;;;;;;;;17.50;5.30;;;;;;5048730;28;20320;-76
2023/07/14 03:28:01;;;;;;;;;;;17.40;1.00;;;;;;5043268;28;19932;-78
2023/07/14 03:30:27;;;;;;;;;;;17.40;1.00;;;;;;5051597;28;19932;-88
2023/07/14 03:32:52;;;;;;;;;;;17.30;5.70;;;;;;5040399;28;19927;-81
2023/07/14 03:35:19;;;;;;;;;;;17.30;2.00;;;;;;5042034;28;20040;-79
2023/07/14 03:37:46;;;;;;;;;;;17.30;3.60;;;;;;5044662;28;19934;-75
2023/07/14 03:40:11;;;;;;;;;;;17.30;5.10;;;;;;5042304;28;19924;-75
2023/07/14 03:42:38;;;;;;;;;;;17.30;3.60;;;;;;5040807;28;20003;-77
2023/07/14 03:45:04;;;;;;;;;;;17.30;8.70;;;;;;5041653;28;19938;-76
2023/07/14 03:47:30;;;;;;;;;;;17.30;8.40;;;;;;5026544;28;20398;-78
2023/07/14 03:49:55;;;;;;;;;;;17.20;4.80;;;;;;5026432;28;19932;-75
2023/07/14 03:52:21;;;;;;;;;;;17.30;1.80;;;;;;5040889;28;19932;-77
2023/07/14 03:54:47;;;;;;;;;;;17.30;9.80;;;;;;5043831;28;20405;-79
2023/07/14 03:57:16;;;;;;;;;;;17.20;7.30;;;;;;5061973;28;20828;-79
2023/07/14 03:59:41;;;;;;;;;;;17.20;4.60;;;;;;5043152;28;20361;-78
2023/07/14 04:02:07;;;;;;;;;;;17.20;6.50;;;;;;5044539;28;20385;-78
2023/07/14 04:04:33;;;;;;;;;;;17.20;1.30;;;;;;5043177;28;19928;-77
2023/07/14 04:06:58;;;;;;;;;;;17.30;9.40;;;;;;5044483;28;20945;-76
2023/07/14 04:09:24;;;;;;;;;;;17.30;12.20;;;;;;5040420;28;20641;-79
2023/07/14 04:11:50;;;;;;;;;;;17.30;10.00;;;;;;5062833;28;19947;-81
2023/07/14 04:14:16;;;;;;;;;;;17.30;13.90;;;;;;5045873;28;19932;-80
2023/07/14 04:16:41;;;;;;;;;;;17.30;14.20;;;;;;5044263;28;19932;-80
2023/07/14 04:19:07;;;;;;;;;;;17.40;11.60;;;;;;5047242;28;19967;-79
2023/07/14 04:21:33;;;;;;;;;;;17.40;13.00;;;;;;5040469;28;19928;-77
2023/07/14 04:23:59;;;;;;;;;;;17.40;5.00;;;;;;5061154;28;19958;-81
2023/07/14 04:26:26;;;;;;;;;;;17.40;13.40;;;;;;5043126;28;19927;-75
2023/07/14 04:28:52;;;;;;;;;;;17.40;13.80;;;;;;5052962;28;20416;-76
2023/07/14 04:31:17;;;;;;;;;;;17.30;12.60;;;;;;5039904;28;19920;-74
2023/07/14 04:33:44;;;;;;;;;;;17.40;10.70;;;;;;5066124;28;20383;-75
2023/07/14 04:36:10;;;;;;;;;;;17.40;11.30;;;;;;5047262;28;19928;-76
2023/07/14 04:38:35;;;;;;;;;;;17.40;12.80;;;;;;5048358;28;19931;-75
2023/07/14 04:41:02;;;;;;;;;;;17.40;11.90;;;;;;5040871;28;19957;-77
2023/07/14 04:43:28;;;;;;;;;;;17.40;10.50;;;;;;5047248;28;20026;-74
2023/07/14 04:45:53;;;;;;;;;;;17.40;14.70;;;;;;5032333;28;20010;-74
2023/07/14 04:48:23;;;;;;;;;;;17.40;11.20;;;;;;5046399;28;19932;-79
2023/07/14 04:50:49;;;;;;;;;;;17.50;11.00;;;;;;5043402;28;20743;-78
2023/07/14 04:53:15;;;;;;;;;;;17.50;10.60;;;;;;5045909;27;19963;-74
2023/07/14 04:55:45;;;;;;;;;;;17.50;10.20;;;;;;5049590;28;19927;-77
2023/07/14 04:58:11;;;;;;;;;;;17.50;10.80;;;;;;5047423;27;19984;-75
2023/07/14 05:00:38;;;;;;;;;;;17.50;7.80;;;;;;5047219;27;19928;-77
2023/07/14 05:03:04;;;;;;;;;;;17.60;5.60;;;;;;5033146;28;19924;-75
2023/07/14 05:05:29;;;;;;;;;;;17.60;5.70;;;;;;5026811;28;19927;-75
2023/07/14 05:07:55;;;;;;;;;;;17.60;5.00;;;;;;5051232;28;19992;-78
2023/07/14 05:10:22;;;;;;;;;;;17.60;6.40;;;;;;5046228;28;20428;-82
2023/07/14 05:12:55;;;;;;;;;;;17.70;6.00;;;;;;5044116;27;20032;-82
2023/07/14 05:15:21;;;;;;;;;;;17.70;7.90;;;;;;5057535;28;19973;-78
2023/07/14 05:17:47;;;;;;;;;;;17.70;7.60;;;;;;5065513;28;20672;-82
2023/07/14 05:20:14;;;;;;;;;;;17.70;9.10;;;;;;5043129;27;21647;-82
2023/07/14 05:22:41;;;;;;;;;;;17.80;1.60;;;;;;5044600;27;21043;-80
2023/07/14 05:25:07;;;;;;;;;;;17.80;2.10;;;;;;5047155;28;20033;-80
2023/07/14 05:27:33;;;;;;;;;;;17.90;3.80;;;;;;5046671;28;20273;-81
2023/07/14 05:30:06;;;;;;;;;;;17.90;1.00;;;;;;5046870;27;20314;-81
2023/07/14 05:32:32;;;;;;;;;;;18.00;1.00;;;;;;5044306;28;19935;-81
2023/07/14 05:34:58;;;;;;;;;;;18.00;1.00;;;;;;5030701;27;19932;-79
2023/07/14 05:37:24;;;;;;;;;;;18.10;1.00;;;;;;5066076;27;20087;-80
2023/07/14 05:39:50;;;;;;;;;;;18.10;1.00;;;;;;5043256;28;20638;-77
2023/07/14 05:42:15;;;;;;;;;;;18.20;1.00;;;;;;5046904;28;19936;-77
2023/07/14 05:44:41;;;;;;;;;;;18.20;1.00;;;;;;5048569;27;19967;-81
2023/07/14 05:47:07;;;;;;;;;;;18.30;1.00;;;;;;5065924;27;22085;-83
2023/07/14 05:49:32;;;;;;;;;;;18.30;1.00;;;;;;5046479;28;20180;-81
2023/07/14 05:51:59;;;;;;;;;;;18.40;1.00;;;;;;5045921;28;19942;-83
2023/07/14 05:54:25;;;;;;;;;;;18.50;1.00;;;;;;5051633;28;19924;-82
2023/07/14 05:56:50;;;;;;;;;;;18.50;1.00;;;;;;5048989;28;19931;-85
2023/07/14 05:59:16;;;;;;;;;;;18.60;1.00;;;;;;5050504;28;19927;-83
2023/07/14 06:01:48;;;;;;;;;;;18.70;1.00;;;;;;5049435;27;19935;-83
2023/07/14 06:04:15;;;;;;;;;;;18.90;1.00;;;;;;5037655;28;19931;-84
2023/07/14 06:06:41;;;;;;;;;;;19.00;1.00;;;;;;5048306;28;21288;-85
2023/07/14 06:09:09;;;;;;;;;;;19.10;1.00;;;;;;5052506;27;22396;-83
2023/07/14 06:11:35;;;;;;;;;;;19.20;1.00;;;;;;5062223;27;20014;-80
2023/07/14 06:14:00;;;;;;;;;;;19.20;1.00;;;;;;5046059;28;19928;-84
2023/07/14 06:16:26;;;;;;;;;;;19.20;1.00;;;;;;5050859;28;20375;-82
2023/07/14 06:18:52;;;;;;;;;;;19.20;1.00;;;;;;5050527;28;20639;-80
2023/07/14 06:21:18;;;;;;;;;;;19.30;1.00;;;;;;5063473;28;20339;-81
2023/07/14 06:23:44;;;;;;;;;;;19.30;1.00;;;;;;5061239;28;19924;-80
2023/07/14 06:26:09;;;;;;;;;;;19.30;1.00;;;;;;5049248;28;19932;-83
2023/07/14 06:28:35;;;;;;;;;;;19.40;1.00;;;;;;5067566;28;19983;-82
2023/07/14 06:31:04;;;;;;;;;;;19.40;1.00;;;;;;5058550;28;19955;-82
2023/07/14 06:33:29;;;;;;;;;;;19.50;1.00;;;;;;5054324;28;19932;-83
2023/07/14 06:35:55;;;;;;;;;;;19.50;1.00;;;;;;5076769;28;20505;-84
2023/07/14 06:38:22;;;;;;;;;;;19.50;1.00;;;;;;5056958;28;20066;-81
2023/07/14 06:40:54;;;;;;;;;;;19.50;1.00;;;;;;5059615;28;19924;-81
2023/07/14 06:43:19;;;;;;;;;;;19.50;1.00;;;;;;5043886;28;20033;-81
2023/07/14 06:45:49;;;;;;;;;;;19.50;1.00;;;;;;5058016;28;19935;-81
2023/07/14 06:48:14;;;;;;;;;;;19.50;1.00;;;;;;5048489;28;19931;-81
2023/07/14 06:50:40;;;;;;;;;;;19.40;1.00;;;;;;5077941;28;20323;-82
2023/07/14 06:53:06;;;;;;;;;;;19.40;1.00;;;;;;5034439;28;20043;-85
2023/07/14 06:55:31;;;;;;;;;;;19.40;1.00;;;;;;5009595;28;19935;-82
2023/07/14 06:57:57;;;;;;;;;;;19.40;1.00;;;;;;5053169;28;19928;-81
2023/07/14 07:00:24;;;;;;;;;;;19.40;1.00;;;;;;5017633;28;19921;-81
2023/07/14 07:02:50;;;;;;;;;;;19.50;1.00;;;;;;5005322;28;20062;-82
2023/07/14 07:05:16;;;;;;;;;;;19.60;1.00;;;;;;5004150;28;20059;-81
2023/07/14 07:07:42;;;;;;;;;;;19.70;1.00;;;;;;5023697;28;19930;-81
2023/07/14 07:10:08;;;;;;;;;;;19.90;1.00;;;;;;5021285;28;20295;-80
2023/07/14 07:12:33;;;;;;;;;;;19.90;1.00;;;;;;5022593;28;19925;-83
2023/07/14 07:14:59;;;;;;;;;;;20.00;99.90;;;;;;5022218;28;20054;-79
2023/07/14 07:17:25;;;;;;;;;;;20.10;99.90;;;;;;5020356;28;20571;-82
2023/07/14 07:19:50;;;;;;;;;;;20.20;99.90;;;;;;5022931;28;19924;-82
2023/07/14 07:22:16;;;;;;;;;;;20.10;99.90;;;;;;5042746;28;20882;-85
2023/07/14 07:24:42;;;;;;;;;;;20.30;99.90;;;;;;5018028;28;20505;-74
2023/07/14 07:27:07;;;;;;;;;;;20.50;99.90;;;;;;5031982;28;19967;-77
2023/07/14 07:29:33;;;;;;;;;;;20.50;1.00;;;;;;5021639;28;19928;-75
2023/07/14 07:31:59;;;;;;;;;;;20.80;99.90;;;;;;5049884;28;19928;-76
2023/07/14 07:34:24;;;;;;;;;;;21.00;99.90;;;;;;5042573;28;19941;-76
2023/07/14 07:36:50;;;;;;;;;;;21.30;1.00;;;;;;5037251;28;19974;-75
2023/07/14 07:39:16;;;;;;;;;;;21.50;1.00;;;;;;5034851;28;20387;-75
2023/07/14 07:41:41;;;;;;;;;;;21.70;8.90;;;;;;5006392;28;20115;-77
2023/07/14 07:44:08;;;;;;;;;;;21.70;99.90;;;;;;5050672;28;20029;-75
2023/07/14 07:46:35;;;;;;;;;;;21.90;99.90;;;;;;5019428;28;19925;-75
2023/07/14 07:49:01;;;;;;;;;;;22.00;99.90;;;;;;5016187;28;19929;-75
2023/07/14 07:51:28;;;;;;;;;;;22.00;96.10;;;;;;5033595;28;19944;-75
2023/07/14 07:53:54;;;;;;;;;;;22.00;1.00;;;;;;5003647;28;19932;-75
2023/07/14 07:56:20;;;;;;;;;;;22.10;99.90;;;;;;5053676;28;20003;-75
2023/07/14 07:58:46;;;;;;;;;;;22.20;99.90;;;;;;5048121;28;19925;-76
2023/07/14 08:01:17;;;;;;;;;;;22.40;11.40;;;;;;5034101;28;19928;-75
2023/07/14 08:03:43;;;;;;;;;;;22.70;1.00;;;;;;5036398;28;20283;-77
2023/07/14 08:06:08;;;;;;;;;;;23.00;1.00;;;;;;5036348;28;19964;-75
2023/07/14 08:08:34;;;;;;;;;;;23.20;99.90;;;;;;5020983;28;19924;-76
2023/07/14 08:11:00;;;;;;;;;;;23.40;99.90;;;;;;5024501;28;19929;-75
2023/07/14 08:13:28;;;;;;;;;;;23.70;99.90;;;;;;5037769;28;20019;-78
2023/07/14 08:15:55;;;;;;;;;;;23.80;99.90;;;;;;5010564;28;20625;-75
2023/07/14 08:18:21;;;;;;;;;;;23.80;99.90;;;;;;5042534;28;19925;-76
2023/07/14 08:20:47;;;;;;;;;;;23.90;1.00;;;;;;5025046;28;19928;-76
2023/07/14 08:23:14;;;;;;;;;;;23.80;1.00;;;;;;5020893;28;19932;-77
2023/07/14 08:25:40;;;;;;;;;;;23.50;1.00;;;;;;5056246;28;19932;-76
2023/07/14 08:28:05;;;;;;;;;;;23.30;1.00;;;;;;5009525;28;20027;-75
2023/07/14 08:30:31;;;;;;;;;;;23.30;1.00;;;;;;5012229;28;20027;-75
2023/07/14 08:32:57;;;;;;;;;;;23.50;1.00;;;;;;5044816;28;19929;-75
2023/07/14 08:35:23;;;;;;;;;;;23.70;99.90;;;;;;5006344;28;19936;-77
2023/07/14 08:37:49;;;;;;;;;;;24.00;99.90;;;;;;5012058;28;19928;-76
2023/07/14 08:40:17;;;;;;;;;;;24.10;99.90;;;;;;5027894;28;20078;-74
2023/07/14 08:42:43;;;;;;;;;;;24.30;99.90;;;;;;5021208;28;19978;-76
2023/07/14 08:45:14;;;;;;;;;;;24.40;99.90;;;;;;5024489;28;19944;-77
2023/07/14 08:47:46;;;;;;;;;;;24.60;99.90;;;;;;5039514;28;19924;-74
2023/07/14 08:50:16;;;;;;;;;;;24.70;99.90;;;;;;5033323;28;19935;-75
2023/07/14 08:52:42;;;;;;;;;;;24.90;99.90;;;;;;5033886;28;20036;-77
2023/07/14 08:55:14;;;;;;;;;;;24.90;99.90;;;;;;5036533;28;20732;-75
2023/07/14 08:57:53;;;;;;;;;;;24.90;98.10;;;;;;5051829;28;19978;-76
2023/07/14 09:00:36;;;;;;;;;;;24.50;40.90;;;;;;5039607;28;21098;-77
2023/07/14 09:03:28;;;;;;;;;;;24.40;54.20;;;;;;5020063;28;19939;-76
2023/07/14 09:05:58;;;;;;;;;;;24.10;72.40;;;;;;4998378;28;19932;-77
2023/07/14 09:08:25;;;;;;;;;;;24.10;99.90;;;;;;5061487;28;20364;-76
2023/07/14 09:11:17;;;;;;;;;;;24.30;99.90;;;;;;5026531;28;19932;-75
2023/07/14 09:13:50;;;;;;;;;;;24.50;99.90;;;;;;5042104;28;19929;-75
2023/07/14 09:16:18;;;;;;;;;;;24.80;99.90;;;;;;5019430;28;20454;-75
2023/07/14 09:18:52;;;;;;;;;;;24.70;58.30;;;;;;5025809;28;20023;-75
2023/07/14 09:21:39;;;;;;;;;;;24.90;78.60;;;;;;5025759;28;19924;-75
2023/07/14 09:24:23;;;;;;;;;;;25.10;1.00;;;;;;5027018;28;20406;-75
2023/07/14 09:26:53;;;;;;;;;;;25.40;1.00;;;;;;5042735;28;19933;-78
2023/07/14 09:29:21;;;;;;;;;;;25.70;1.00;;;;;;5022434;28;19936;-75
2023/07/14 09:31:46;;;;;;;;;;;25.90;1.00;;;;;;5061348;28;20371;-78
2023/07/14 09:34:20;;;;;;;;;;;26.10;1.00;;;;;;5044048;28;19928;-76
2023/07/14 09:36:46;;;;;;;;;;;26.20;1.00;;;;;;5019505;28;20726;-79
2023/07/14 09:39:22;;;;;;;;;;;26.40;1.00;;;;;;5013366;28;19925;-76
2023/07/14 09:41:50;;;;;;;;;;;26.40;1.00;;;;;;5043912;28;20744;-76
2023/07/14 09:44:16;;;;;;;;;;;26.60;1.00;;;;;;5030344;28;19971;-75
2023/07/14 09:46:45;;;;;;;;;;;26.70;1.00;;;;;;5011791;28;20015;-75
2023/07/14 09:49:17;;;;;;;;;;;27.00;1.00;;;;;;5013015;28;20368;-75
2023/07/14 09:51:59;;;;;;;;;;;26.80;1.00;;;;;;5026147;28;19931;-75
2023/07/14 09:54:24;;;;;;;;;;;26.80;1.00;;;;;;5058186;28;20011;-78
2023/07/14 09:56:59;;;;;;;;;;;27.10;1.00;;;;;;5060818;28;19925;-77
2023/07/14 09:59:24;;;;;;;;;;;27.30;1.00;;;;;;5042445;28;20072;-79
2023/07/14 10:01:56;;;;;;;;;;;27.60;1.00;;;;;;5047123;28;20403;-77
2023/07/14 10:04:26;;;;;;;;;;;27.70;1.00;;;;;;5044320;28;20330;-76
2023/07/14 10:06:52;;;;;;;;;;;27.70;1.00;;;;;;5023609;28;19924;-77
2023/07/14 10:09:20;;;;;;;;;;;28.00;1.00;;;;;;5023896;28;19924;-76
2023/07/14 10:11:46;;;;;;;;;;;28.10;1.00;;;;;;5012239;28;19928;-80
2023/07/14 10:14:26;;;;;;;;;;;27.90;1.00;;;;;;5051138;28;21630;-78
2023/07/14 10:16:53;;;;;;;;;;;27.50;1.00;;;;;;5001878;28;19924;-76
2023/07/14 10:19:20;;;;;;;;;;;27.10;1.00;;;;;;5033136;28;20453;-76
2023/07/14 10:21:51;;;;;;;;;;;26.60;1.00;;;;;;5056700;28;20529;-76
2023/07/14 10:24:18;;;;;;;;;;;26.50;1.00;;;;;;5037160;28;19925;-76
2023/07/14 10:26:49;;;;;;;;;;;26.40;1.00;;;;;;5019258;28;19937;-76
2023/07/14 10:29:16;;;;;;;;;;;26.10;1.00;;;;;;5019619;28;19974;-77
2023/07/14 10:31:44;;;;;;;;;;;26.00;1.00;;;;;;5039622;28;19935;-77
2023/07/14 10:34:36;;;;;;;;;;;25.80;1.00;;;;;;5035155;28;19932;-76
2023/07/14 10:37:04;;;;;;;;;;;25.90;1.00;;;;;;5016578;28;19925;-76
2023/07/14 10:39:35;;;;;;;;;;;26.10;1.00;;;;;;5048854;28;20945;-77
2023/07/14 10:42:02;;;;;;;;;;;26.30;1.00;;;;;;5020865;28;19929;-78
2023/07/14 10:44:30;;;;;;;;;;;26.50;1.00;;;;;;5004895;28;19928;-76
2023/07/14 10:46:58;;;;;;;;;;;26.80;1.00;;;;;;5038421;28;21595;-78
2023/07/14 10:49:24;;;;;;;;;;;27.00;1.00;;;;;;5036623;28;19935;-75
2023/07/14 10:51:58;;;;;;;;;;;27.00;1.00;;;;;;5013693;28;19929;-76
2023/07/14 10:54:40;;;;;;;;;;;27.20;1.00;;;;;;5012178;28;20391;-76
2023/07/14 10:57:29;;;;;;;;;;;27.50;1.00;;;;;;5025203;28;20422;-76
2023/07/14 10:59:58;;;;;;;;;;;27.70;1.00;;;;;;5023223;28;20360;-78
2023/07/14 11:02:45;;;;;;;;;;;27.60;1.00;;;;;;5005997;28;19982;-76
2023/07/14 11:05:13;;;;;;;;;;;27.60;1.00;;;;;;5040830;28;20350;-77
2023/07/14 11:07:39;;;;;;;;;;;27.50;1.00;;;;;;5039316;28;19924;-79
2023/07/14 11:10:29;;;;;;;;;;;27.60;1.00;;;;;;5026999;28;20554;-76
2023/07/14 11:13:09;;;;;;;;;;;27.60;1.00;;;;;;4988419;28;22044;-79
2023/07/14 11:15:50;;;;;;;;;;;27.40;1.00;;;;;;5040130;28;19932;-77
2023/07/14 11:18:19;;;;;;;;;;;27.20;1.00;;;;;;5059041;28;19978;-76
2023/07/14 11:21:23;;;;;;;;;;;27.30;99.90;;;;;;5031702;28;20232;-79
2023/07/14 11:23:57;;;;;;;;;;;27.40;1.00;;;;;;4978470;28;20071;-76
2023/07/14 11:26:28;;;;;;;;;;;27.50;1.00;;;;;;4997083;28;20048;-77
2023/07/14 11:28:54;;;;;;;;;;;27.60;99.90;;;;;;5014136;28;20030;-78
2023/07/14 11:31:26;;;;;;;;;;;27.80;99.90;;;;;;5019379;28;19933;-79
2023/07/14 11:33:52;;;;;;;;;;;27.80;99.90;;;;;;5054163;28;19928;-79
2023/07/14 11:36:19;;;;;;;;;;;28.10;99.90;;;;;;5021912;28;19927;-77
2023/07/14 11:38:57;;;;;;;;;;;28.40;99.90;;;;;;5040199;28;19976;-77
2023/07/14 11:41:22;;;;;;;;;;;28.30;99.90;;;;;;5055941;28;19933;-76
2023/07/14 11:43:49;;;;;;;;;;;28.20;99.90;;;;;;5039861;28;20311;-76
2023/07/14 11:46:17;;;;;;;;;;;28.00;99.90;;;;;;5040296;28;20315;-76
2023/07/14 11:48:49;;;;;;;;;;;27.80;99.90;;;;;;5021887;28;19965;-78
2023/07/14 11:51:16;;;;;;;;;;;27.70;99.90;;;;;;5055929;28;19935;-79
2023/07/14 11:54:02;;;;;;;;;;;27.60;99.90;;;;;;5029722;28;20024;-76
2023/07/14 11:56:29;;;;;;;;;;;27.60;99.90;;;;;;5037712;28;19932;-77
2023/07/14 11:59:13;;;;;;;;;;;27.50;99.90;;;;;;5029516;28;19936;-80
2023/07/14 12:01:47;;;;;;;;;;;27.60;99.90;;;;;;5025212;28;19979;-77
2023/07/14 12:04:20;;;;;;;;;;;27.60;99.90;;;;;;5057817;28;20031;-77
2023/07/14 12:06:47;;;;;;;;;;;27.60;99.90;;;;;;5020883;28;19933;-76
2023/07/14 12:09:18;;;;;;;;;;;27.50;99.90;;;;;;5028769;28;19979;-76
2023/07/14 12:11:46;;;;;;;;;;;27.20;99.90;;;;;;5044871;28;20270;-79
2023/07/14 12:14:25;;;;;;;;;;;27.10;99.90;;;;;;5028940;28;20000;-77
2023/07/14 12:16:51;;;;;;;;;;;27.00;99.90;;;;;;5058798;28;19924;-77
2023/07/14 12:19:27;;;;;;;;;;;26.90;99.90;;;;;;5060697;28;19931;-77
2023/07/14 12:22:02;;;;;;;;;;;26.70;99.90;;;;;;5029330;28;19967;-77
2023/07/14 12:24:30;;;;;;;;;;;26.50;99.90;;;;;;5026368;28;20226;-76
2023/07/14 12:27:07;;;;;;;;;;;26.30;99.90;;;;;;5022628;28;19928;-77
2023/07/14 12:29:34;;;;;;;;;;;26.20;99.90;;;;;;5040487;28;19932;-78
2023/07/14 12:32:02;;;;;;;;;;;26.00;99.90;;;;;;5055948;28;20685;-76
2023/07/14 12:34:30;;;;;;;;;;;25.80;99.90;;;;;;5040184;28;20296;-76
2023/07/14 12:36:58;;;;;;;;;;;25.60;99.90;;;;;;5055216;28;19976;-78
2023/07/14 12:39:24;;;;;;;;;;;25.50;99.90;;;;;;5024865;28;19920;-73
2023/07/14 12:41:53;;;;;;;;;;;25.20;99.90;;;;;;5036652;28;19985;-74
2023/07/14 12:44:24;;;;;;;;;;;25.10;1.00;;;;;;5021138;28;19936;-78
2023/07/14 12:46:51;;;;;;;;;;;24.90;1.00;;;;;;5007971;28;20846;-74
2023/07/14 12:49:17;;;;;;;;;;;24.80;1.00;;;;;;5022000;28;19936;-76
2023/07/14 12:51:43;;;;;;;;;;;24.60;1.00;;;;;;5014242;28;19986;-78
2023/07/14 12:54:27;;;;;;;;;;;24.40;1.00;;;;;;5027500;28;20315;-76
2023/07/14 12:56:54;;;;;;;;;;;24.20;1.00;;;;;;5009195;28;19933;-75
2023/07/14 12:59:21;;;;;;;;;;;24.10;1.00;;;;;;5025660;28;19936;-74
2023/07/14 13:01:48;;;;;;;;;;;24.00;1.00;;;;;;5044560;28;19929;-76
2023/07/14 13:04:14;;;;;;;;;;;23.90;1.00;;;;;;5025359;28;19940;-78
2023/07/14 13:06:41;;;;;;;;;;;23.90;1.00;;;;;;5020890;28;19933;-76
2023/07/14 13:09:10;;;;;;;;;;;23.70;1.00;;;;;;5044028;28;19928;-76
2023/07/14 13:11:38;;;;;;;;;;;23.70;1.00;;;;;;5042679;28;19929;-75
2023/07/14 13:14:04;;;;;;;;;;;23.70;1.00;;;;;;5042761;28;19929;-75
2023/07/14 13:16:37;;;;;;;;;;;23.70;1.00;;;;;;5019964;28;20392;-75
2023/07/14 13:19:04;;;;;;;;;;;23.70;69.00;;;;;;5045016;28;19937;-77
2023/07/14 13:21:39;;;;;;;;;;;23.90;22.90;;;;;;5033496;28;20107;-78
2023/07/14 13:24:24;;;;;;;;;;;24.00;26.60;;;;;;5024501;28;20530;-77
2023/07/14 13:26:57;;;;;;;;;;;24.10;1.00;;;;;;5041068;28;19932;-76
2023/07/14 13:29:27;;;;;;;;;;;24.10;1.00;;;;;;5054256;28;20184;-77
2023/07/14 13:31:55;;;;;;;;;;;24.10;1.00;;;;;;5039201;28;19929;-78
2023/07/14 13:34:27;;;;;;;;;;;24.00;1.00;;;;;;5052926;28;20007;-77
2023/07/14 13:36:53;;;;;;;;;;;24.00;1.00;;;;;;5018350;28;19937;-79
2023/07/14 13:39:48;;;;;;;;;;;24.10;1.00;;;;;;5024048;28;19959;-76
2023/07/14 13:42:45;;;;;;;;;;;24.10;1.00;;;;;;5000626;28;19939;-76
2023/07/14 13:45:34;;;;;;;;;;;24.20;1.00;;;;;;5013259;28;19928;-75
2023/07/14 13:48:00;;;;;;;;;;;24.20;1.00;;;;;;5037314;28;20029;-76
2023/07/14 13:50:26;;;;;;;;;;;24.30;1.00;;;;;;5007006;28;21880;-79
2023/07/14 13:52:51;;;;;;;;;;;24.50;1.00;;;;;;5037852;28;19928;-77
2023/07/14 13:55:19;;;;;;;;;;;24.50;1.00;;;;;;5052718;28;20024;-76
2023/07/14 13:57:45;;;;;;;;;;;24.50;1.00;;;;;;5036398;28;19964;-75
2023/07/14 14:00:19;;;;;;;;;;;24.50;1.00;;;;;;5020663;28;19928;-77
2023/07/14 14:02:46;;;;;;;;;;;24.60;1.00;;;;;;5017073;28;20035;-76
2023/07/14 14:05:19;;;;;;;;;;;24.60;1.00;;;;;;5021333;28;19932;-77
2023/07/14 14:07:45;;;;;;;;;;;24.60;1.00;;;;;;5019805;28;19924;-77
2023/07/14 14:10:15;;;;;;;;;;;24.70;1.00;;;;;;5057127;28;19929;-75
2023/07/14 14:12:41;;;;;;;;;;;24.70;1.00;;;;;;5026910;28;21275;-76
2023/07/14 14:15:07;;;;;;;;;;;24.70;1.00;;;;;;5037644;28;19932;-76
2023/07/14 14:17:33;;;;;;;;;;;24.70;1.00;;;;;;5021898;28;19929;-75
2023/07/14 14:19:59;;;;;;;;;;;24.60;1.00;;;;;;5020960;28;20210;-76
2023/07/14 14:22:27;;;;;;;;;;;24.60;1.00;;;;;;5017954;28;19929;-78
2023/07/14 14:24:52;;;;;;;;;;;24.70;1.00;;;;;;5022867;28;19936;-75
2023/07/14 14:27:18;;;;;;;;;;;24.50;1.00;;;;;;5001841;28;19928;-75
2023/07/14 14:29:43;;;;;;;;;;;24.50;1.00;;;;;;5019811;28;19927;-78
2023/07/14 14:32:15;;;;;;;;;;;24.30;1.00;;;;;;5044591;28;19979;-76
2023/07/14 14:34:41;;;;;;;;;;;24.70;1.00;;;;;;5024651;28;19928;-76